createdAt,value
2018-10-11T00:03:59.891Z,3.65
2018-10-11T00:09:54.892Z,25.39
2018-10-11T00:15:49.882Z,24.23
2018-10-11T00:21:44.890Z,29.44
2018-10-11T00:27:39.894Z,25.04
2018-10-11T00:33:34.972Z,25.68
2018-10-11T00:39:29.899Z,24.43
2018-10-11T00:45:24.903Z,28.92
2018-10-11T00:51:19.938Z,27.76
2018-10-11T00:57:14.927Z,25.63
2018-10-11T01:03:09.932Z,27.44
2018-10-11T01:09:04.942Z,24.72
2018-10-11T01:14:59.938Z,25.22
2018-10-11T01:20:54.945Z,27.76
2018-10-11T01:26:49.931Z,25.81
2018-10-11T01:32:44.984Z,26.61
2018-10-11T01:38:39.970Z,25.48
2018-10-11T01:44:34.953Z,26.05
2018-10-11T01:50:30.012Z,25.58
2018-10-11T01:56:24.988Z,28.69
2018-10-11T02:02:19.959Z,32.16
2018-10-11T02:08:15.022Z,27.83
2018-10-11T02:14:09.981Z,30.58
2018-10-11T02:20:05.002Z,30.7
2018-10-11T02:25:59.981Z,30.87
2018-10-11T02:31:55.020Z,36.68
2018-10-11T02:37:49.997Z,34.24
2018-10-11T02:43:44.997Z,38.13
2018-10-11T02:49:39.999Z,34.73
2018-10-11T02:55:35.020Z,38.39
2018-10-11T03:01:30.061Z,39.5
2018-10-11T03:07:25.033Z,39.43
2018-10-11T03:13:20.009Z,36.22
2018-10-11T03:19:15.021Z,39.31
2018-10-11T03:25:10.056Z,38.18
2018-10-11T03:31:05.047Z,41.79
2018-10-11T03:37:00.022Z,41.1
2018-10-11T03:42:55.060Z,37.83
2018-10-11T03:48:50.042Z,42
2018-10-11T03:54:45.109Z,40.93
2018-10-11T04:00:40.048Z,41.7
2018-10-11T04:06:35.115Z,41.4
2018-10-11T04:12:30.054Z,43.6
2018-10-11T04:18:25.074Z,42.33
2018-10-11T04:24:20.055Z,43.77
2018-10-11T04:30:15.184Z,40.02
2018-10-11T04:36:10.184Z,47.97
2018-10-11T04:42:05.079Z,39.65
2018-10-11T04:48:00.089Z,42.76
2018-10-11T04:53:55.083Z,45.84
2018-10-11T04:59:50.193Z,47
2018-10-11T05:05:45.084Z,49.77
2018-10-11T05:11:40.082Z,45.29
2018-10-11T05:17:35.102Z,44.04
2018-10-11T05:23:30.106Z,46.43
2018-10-11T05:29:25.113Z,50.76
2018-10-11T05:35:20.102Z,51.84
2018-10-11T05:41:15.136Z,52
2018-10-11T05:47:10.130Z,53.91
2018-10-11T05:53:05.146Z,50.21
2018-10-11T05:59:00.117Z,50.33
2018-10-11T06:04:55.119Z,49.97
2018-10-11T06:10:50.142Z,50.17
2018-10-11T06:16:45.201Z,53.49
2018-10-11T06:22:40.205Z,54.21
2018-10-11T06:28:35.164Z,57.09
2018-10-11T06:34:30.162Z,64.02
2018-10-11T06:40:25.184Z,76.05
2018-10-11T06:46:20.154Z,65.1
2018-10-11T06:52:15.164Z,67.91
2018-10-11T06:58:10.218Z,61.5
2018-10-11T07:04:05.188Z,59.18
2018-10-11T07:10:00.181Z,62.27
2018-10-11T07:15:55.181Z,66.03
2018-10-11T07:21:50.165Z,69.17
2018-10-11T07:27:45.185Z,64.79
2018-10-11T07:33:40.192Z,65.02
2018-10-11T07:39:35.180Z,70.05
2018-10-11T07:45:30.193Z,73.94
2018-10-11T07:51:25.227Z,74.76
2018-10-11T07:57:20.277Z,74.13
2018-10-11T08:03:15.211Z,80.61
2018-10-11T08:09:10.290Z,76.39
2018-10-11T08:15:05.258Z,75.13
2018-10-11T08:21:00.241Z,74.29
2018-10-11T08:26:55.381Z,66.88
2018-10-11T08:32:50.299Z,68.69
2018-10-11T08:38:45.261Z,74.72
2018-10-11T08:44:40.273Z,69.48
2018-10-11T08:50:35.289Z,66.36
2018-10-11T08:56:30.246Z,63.14
2018-10-11T09:02:25.264Z,60.4
2018-10-11T09:08:20.300Z,57.65
2018-10-11T09:14:15.282Z,56.72
2018-10-11T09:20:10.302Z,56.68
2018-10-11T09:26:05.266Z,64.04
2018-10-11T09:32:00.269Z,60.9
2018-10-11T09:37:55.284Z,60.99
2018-10-11T09:43:50.292Z,54.36
2018-10-11T09:49:45.318Z,55.05
2018-10-11T09:55:40.326Z,51.78
2018-10-11T10:01:35.306Z,48.05
2018-10-11T10:07:30.316Z,52.18
2018-10-11T10:13:25.315Z,46.58
2018-10-11T10:19:20.322Z,43.04
2018-10-11T10:25:15.327Z,42.11
2018-10-11T10:31:10.306Z,40.32
2018-10-11T10:37:05.325Z,39.36
2018-10-11T10:43:00.345Z,42.3
2018-10-11T10:48:55.353Z,39.19
2018-10-11T10:54:50.378Z,33.69
2018-10-11T11:00:45.335Z,32.51
2018-10-11T11:06:40.410Z,32.1
2018-10-11T11:12:35.404Z,33.55
2018-10-11T11:18:30.396Z,29.45
2018-10-11T11:24:25.362Z,32.1
2018-10-11T11:30:20.396Z,33.18
2018-10-11T11:36:15.369Z,28.5
2018-10-11T11:42:10.380Z,26.27
2018-10-11T11:48:05.410Z,29.05
2018-10-11T11:54:00.489Z,32.39
2018-10-11T11:59:55.372Z,29.37
2018-10-11T12:05:50.406Z,28.1
2018-10-11T12:11:45.401Z,27.59
2018-10-11T12:17:40.451Z,25.3
2018-10-11T12:23:35.413Z,24.8
2018-10-11T12:29:30.447Z,24.63
2018-10-11T12:35:25.423Z,25.29
2018-10-11T12:41:20.413Z,27.34
2018-10-11T12:47:15.437Z,21.56
2018-10-11T12:53:10.424Z,24.35
2018-10-11T12:59:05.427Z,23.63
2018-10-11T13:05:00.465Z,21.47
2018-10-11T13:10:55.467Z,20.96
2018-10-11T13:16:50.454Z,20.33
2018-10-11T13:22:45.493Z,19
2018-10-11T13:28:40.528Z,18.34
2018-10-11T13:34:35.528Z,18.65
2018-10-11T13:40:30.508Z,18.22
2018-10-11T13:46:25.514Z,13.53
2018-10-11T13:52:22.349Z,11.87
2018-10-11T13:58:15.510Z,13.31
2018-10-11T14:04:10.492Z,12.2
2018-10-11T14:10:05.494Z,14.89
2018-10-11T14:16:00.521Z,14.9
2018-10-11T14:21:55.556Z,13.32
2018-10-11T14:27:50.527Z,14.11
2018-10-11T14:33:45.524Z,14.68
2018-10-11T14:39:40.524Z,13.21
2018-10-11T14:45:35.568Z,11.68
2018-10-11T14:51:30.622Z,12.02
2018-10-11T14:57:25.555Z,11.52
2018-10-11T15:03:20.587Z,10.93
2018-10-11T15:09:15.543Z,11.01
2018-10-11T15:15:10.607Z,10.75
2018-10-11T15:21:05.556Z,12.87
2018-10-11T15:27:00.550Z,12.83
2018-10-11T15:32:55.631Z,15.92
2018-10-11T15:38:50.561Z,12.8
2018-10-11T15:44:45.587Z,15.18
2018-10-11T15:50:40.631Z,27.86
2018-10-11T15:56:35.604Z,22.51
2018-10-11T16:02:30.630Z,18.66
2018-10-11T16:08:25.620Z,11.12
2018-10-11T16:14:20.600Z,17.52
2018-10-11T16:20:15.633Z,16.5
2018-10-11T16:26:10.628Z,20.47
2018-10-11T16:32:05.680Z,21.31
2018-10-11T16:38:00.621Z,17.33
2018-10-11T16:43:55.632Z,21.62
2018-10-11T16:49:50.633Z,18.39
2018-10-11T16:55:45.664Z,14.9
2018-10-11T17:01:40.649Z,14.07
2018-10-11T17:07:35.664Z,16.34
2018-10-11T17:13:30.648Z,20.95
2018-10-11T17:19:25.670Z,19.63
2018-10-11T17:25:20.667Z,17.81
2018-10-11T17:31:15.635Z,17.38
2018-10-11T17:37:10.652Z,23.52
2018-10-11T17:43:05.713Z,20.69
2018-10-11T17:49:00.664Z,24.16
2018-10-11T17:54:55.738Z,28.15
2018-10-11T18:00:50.714Z,28.92
2018-10-11T18:06:45.667Z,22.03
2018-10-11T18:12:40.730Z,27.66
2018-10-11T18:18:35.727Z,19.04
2018-10-11T18:24:30.715Z,20.45
2018-10-11T18:30:25.715Z,17.72
2018-10-11T18:36:20.734Z,18.57
2018-10-11T18:42:15.736Z,27.04
2018-10-11T18:48:10.705Z,30.36
2018-10-11T18:54:05.716Z,25.76
2018-10-11T19:00:00.709Z,25.1
2018-10-11T19:05:55.751Z,23.36
2018-10-11T19:11:50.744Z,23.89
2018-10-11T19:17:45.731Z,22.05
2018-10-11T19:23:40.764Z,23.23
2018-10-11T19:29:35.737Z,21.58
2018-10-11T19:35:30.764Z,22
2018-10-11T19:41:25.782Z,20.89
2018-10-11T19:47:20.754Z,22.12
2018-10-11T19:53:15.746Z,23.05
2018-10-11T19:59:10.758Z,21.77
2018-10-11T20:05:05.793Z,22.44
2018-10-11T20:11:00.787Z,19.94
2018-10-11T20:16:55.782Z,21.29
2018-10-11T20:22:50.784Z,21.93
2018-10-11T20:28:45.805Z,22.52
2018-10-11T20:34:40.799Z,19.37
2018-10-11T20:40:35.793Z,23.17
2018-10-11T20:46:30.861Z,19.25
2018-10-11T20:52:25.827Z,20.29
2018-10-11T20:58:20.801Z,17.81
2018-10-11T21:04:15.813Z,20.49
2018-10-11T21:10:10.833Z,19.37
2018-10-11T21:16:05.854Z,18.41
2018-10-11T21:22:00.872Z,19.06
2018-10-11T21:27:55.848Z,18.14
2018-10-11T21:33:50.840Z,15.41
2018-10-11T21:39:45.860Z,18.66
2018-10-11T21:45:40.858Z,18.71
2018-10-11T21:51:35.870Z,18.6
2018-10-11T21:57:30.873Z,19.27
2018-10-11T22:03:25.875Z,19.69
2018-10-11T22:09:20.862Z,16.8
2018-10-11T22:15:15.945Z,16.95
2018-10-11T22:21:10.870Z,16.83
2018-10-11T22:27:05.900Z,18.34
2018-10-11T22:33:00.934Z,18.37
2018-10-11T22:38:55.890Z,12.47
2018-10-11T22:44:50.909Z,16.7
2018-10-11T22:50:45.874Z,16.86
2018-10-11T22:56:40.891Z,16.19
2018-10-11T23:02:35.889Z,16.89
2018-10-11T23:08:30.924Z,17.54
2018-10-11T23:14:25.946Z,16.13
2018-10-11T23:20:20.948Z,15.56
2018-10-11T23:26:15.924Z,15.3
2018-10-11T23:32:10.911Z,12.92
2018-10-11T23:38:05.926Z,14.93
2018-10-11T23:44:01.021Z,12.89
2018-10-11T23:49:55.962Z,13.72
2018-10-11T23:55:50.941Z,13.41
